createdAt,value
2022-10-13T00:00:09.891Z,17.47
2022-10-13T00:02:36.554Z,17.70
2022-10-13T00:05:03.376Z,18.30
2022-10-13T00:07:30.025Z,18.77
2022-10-13T00:09:56.667Z,18.27
2022-10-13T00:12:23.322Z,18.13
2022-10-13T00:14:50.103Z,18.57
2022-10-13T00:17:16.773Z,20.00
2022-10-13T00:19:43.467Z,20.30
2022-10-13T00:22:10.220Z,19.13
2022-10-13T00:24:36.871Z,19.03
2022-10-13T00:27:03.624Z,20.83
2022-10-13T00:29:30.309Z,18.60
2022-10-13T00:31:56.955Z,18.50
2022-10-13T00:34:23.623Z,18.87
2022-10-13T00:36:50.395Z,19.57
2022-10-13T00:39:17.118Z,19.53
2022-10-13T00:41:43.760Z,18.63
2022-10-13T00:44:48.236Z,20.20
2022-10-13T00:47:15.041Z,19.37
2022-10-13T00:49:41.854Z,18.70
2022-10-13T00:52:08.768Z,20.07
2022-10-13T00:54:35.477Z,19.00
2022-10-13T00:57:04.384Z,19.03
2022-10-13T00:59:31.218Z,17.90
2022-10-13T01:01:59.323Z,18.43
2022-10-13T01:04:31.762Z,18.63
2022-10-13T01:06:58.528Z,16.87
2022-10-13T01:09:25.191Z,17.47
2022-10-13T01:12:06.211Z,16.97
2022-10-13T01:14:50.657Z,17.77
2022-10-13T01:17:54.974Z,17.10
2022-10-13T01:20:43.365Z,16.00
2022-10-13T01:23:16.231Z,16.83
2022-10-13T01:26:17.388Z,16.43
2022-10-13T01:29:13.784Z,17.63
2022-10-13T01:31:48.946Z,17.53
2022-10-13T01:34:23.528Z,15.97
2022-10-13T01:36:55.030Z,16.27
2022-10-13T01:39:27.352Z,15.20
2022-10-13T01:42:11.403Z,17.50
2022-10-13T01:44:42.905Z,17.10
2022-10-13T01:47:12.055Z,16.47
2022-10-13T01:49:39.620Z,17.83
2022-10-13T01:52:14.747Z,16.60
2022-10-13T01:54:41.482Z,15.70
2022-10-13T01:57:29.266Z,16.50
2022-10-13T01:59:56.463Z,18.00
2022-10-13T02:02:34.831Z,16.40
2022-10-13T02:05:10.211Z,20.07
2022-10-13T02:07:46.762Z,18.83
2022-10-13T02:10:26.756Z,21.10
2022-10-13T02:13:00.651Z,19.67
2022-10-13T02:15:49.310Z,22.97
2022-10-13T02:18:19.978Z,23.50
2022-10-13T02:20:47.599Z,22.00
2022-10-13T02:23:17.442Z,23.60
2022-10-13T02:25:45.518Z,23.60
2022-10-13T02:28:14.153Z,22.10
2022-10-13T02:30:41.354Z,23.73
2022-10-13T02:33:08.948Z,25.10
2022-10-13T02:35:35.902Z,25.37
2022-10-13T02:38:02.575Z,25.23
2022-10-13T02:40:29.402Z,22.73
2022-10-13T02:42:56.039Z,23.80
2022-10-13T02:45:23.100Z,23.07
2022-10-13T02:47:50.098Z,22.70
2022-10-13T02:50:17.147Z,24.73
2022-10-13T02:52:43.817Z,24.87
2022-10-13T02:55:10.591Z,27.57
2022-10-13T02:57:37.227Z,23.20
2022-10-13T03:00:05.735Z,25.40
2022-10-13T03:02:32.489Z,24.43
2022-10-13T03:04:59.130Z,25.77
2022-10-13T03:07:25.922Z,26.67
2022-10-13T03:09:52.981Z,23.27
2022-10-13T03:12:19.925Z,26.47
2022-10-13T03:14:46.716Z,25.17
2022-10-13T03:17:13.699Z,26.03
2022-10-13T03:19:40.486Z,25.00
2022-10-13T03:22:07.110Z,24.03
2022-10-13T03:24:33.919Z,25.47
2022-10-13T03:27:00.698Z,23.87
2022-10-13T03:29:27.429Z,24.20
2022-10-13T03:31:54.060Z,26.00
2022-10-13T03:34:20.761Z,24.63
2022-10-13T03:36:47.891Z,23.67
2022-10-13T03:39:14.561Z,26.53
2022-10-13T03:41:41.497Z,23.57
2022-10-13T03:44:09.649Z,25.13
2022-10-13T03:46:36.276Z,23.37
2022-10-13T03:49:02.959Z,25.03
2022-10-13T03:51:29.624Z,22.60
2022-10-13T03:53:56.391Z,24.77
2022-10-13T03:56:26.800Z,25.30
2022-10-13T03:58:58.670Z,24.60
2022-10-13T04:01:28.043Z,23.90
2022-10-13T04:03:55.915Z,23.00
2022-10-13T04:06:24.379Z,23.87
2022-10-13T04:08:51.710Z,24.83
2022-10-13T04:11:19.028Z,24.03
2022-10-13T04:13:46.193Z,24.70
2022-10-13T04:16:23.568Z,24.80
2022-10-13T04:18:56.088Z,26.60
2022-10-13T04:21:23.839Z,24.30
2022-10-13T04:23:50.663Z,24.90
2022-10-13T04:26:20.551Z,23.50
2022-10-13T04:28:48.951Z,23.60
2022-10-13T04:31:16.351Z,23.53
2022-10-13T04:33:44.263Z,24.23
2022-10-13T04:36:12.989Z,24.43
2022-10-13T04:38:39.898Z,22.53
2022-10-13T04:41:08.071Z,21.00
2022-10-13T04:43:34.945Z,21.60
2022-10-13T04:46:07.425Z,18.80
2022-10-13T04:48:34.412Z,19.43
2022-10-13T04:51:10.539Z,17.10
2022-10-13T04:53:37.219Z,17.33
2022-10-13T04:56:08.422Z,16.63
2022-10-13T04:58:36.503Z,15.30
2022-10-13T05:01:05.473Z,16.10
2022-10-13T05:03:32.472Z,19.13
2022-10-13T05:05:59.199Z,19.30
2022-10-13T05:08:26.286Z,19.67
2022-10-13T05:10:57.266Z,20.27
2022-10-13T05:13:25.345Z,18.77
2022-10-13T05:15:52.212Z,19.43
2022-10-13T05:18:18.854Z,19.10
2022-10-13T05:20:46.484Z,18.53
2022-10-13T05:23:14.469Z,19.80
2022-10-13T05:25:41.299Z,18.67
2022-10-13T05:28:08.640Z,19.37
2022-10-13T05:30:35.576Z,18.77
2022-10-13T05:33:02.506Z,19.30
2022-10-13T05:35:29.235Z,18.07
2022-10-13T05:37:55.914Z,19.00
2022-10-13T05:40:22.901Z,18.50
2022-10-13T05:42:50.965Z,18.63
2022-10-13T05:45:19.565Z,17.50
2022-10-13T05:47:46.213Z,16.97
2022-10-13T05:50:13.001Z,17.53
2022-10-13T05:52:40.127Z,19.00
2022-10-13T05:55:10.106Z,18.33
2022-10-13T05:57:41.125Z,19.60
2022-10-13T06:00:10.811Z,19.87
2022-10-13T06:03:12.858Z,21.37
2022-10-13T06:05:40.732Z,18.93
2022-10-13T06:08:07.379Z,18.70
2022-10-13T06:10:36.760Z,18.37
2022-10-13T06:13:03.529Z,18.23
2022-10-13T06:15:30.200Z,17.60
2022-10-13T06:17:56.874Z,18.13
2022-10-13T06:20:23.826Z,20.27
2022-10-13T06:22:51.080Z,20.10
2022-10-13T06:25:17.751Z,22.10
2022-10-13T06:27:44.660Z,20.90
2022-10-13T06:30:11.680Z,18.47
2022-10-13T06:32:38.313Z,20.13
2022-10-13T06:35:05.494Z,18.47
2022-10-13T06:37:32.215Z,20.20
2022-10-13T06:39:58.856Z,21.27
2022-10-13T06:42:25.736Z,21.73
2022-10-13T06:44:52.470Z,19.47
2022-10-13T06:47:19.101Z,19.20
2022-10-13T06:49:45.743Z,21.67
2022-10-13T06:52:12.383Z,20.00
2022-10-13T06:54:39.032Z,19.07
2022-10-13T06:57:06.658Z,22.40
2022-10-13T06:59:33.309Z,20.67
2022-10-13T07:02:00.013Z,22.40
2022-10-13T07:04:28.171Z,22.53
2022-10-13T07:06:54.855Z,23.87
2022-10-13T07:09:21.511Z,23.00
2022-10-13T07:11:49.475Z,21.70
2022-10-13T07:14:16.316Z,23.50
2022-10-13T07:16:43.055Z,23.73
2022-10-13T07:19:09.709Z,21.70
2022-10-13T07:21:36.441Z,21.93
2022-10-13T07:24:04.021Z,20.80
2022-10-13T07:26:32.474Z,20.17
2022-10-13T07:28:59.441Z,21.80
2022-10-13T07:31:26.803Z,23.23
2022-10-13T07:33:53.928Z,34.30
2022-10-13T07:36:20.792Z,31.20
2022-10-13T07:38:47.559Z,39.90
2022-10-13T07:41:14.633Z,25.73
2022-10-13T07:43:41.691Z,24.00
2022-10-13T07:46:08.985Z,22.50
2022-10-13T07:48:35.949Z,22.90
2022-10-13T07:51:07.585Z,22.20
2022-10-13T07:53:35.432Z,21.87
2022-10-13T07:56:03.556Z,23.47
2022-10-13T07:58:30.233Z,21.20
2022-10-13T08:00:59.556Z,20.80
2022-10-13T08:03:27.224Z,19.80
2022-10-13T08:05:54.613Z,21.20
2022-10-13T08:08:21.953Z,17.80
2022-10-13T08:10:48.730Z,20.10
2022-10-13T08:17:00.806Z,20.80
2022-10-13T08:19:28.353Z,19.17
2022-10-13T08:21:59.877Z,19.40
2022-10-13T08:24:27.196Z,17.70
2022-10-13T08:26:53.904Z,18.67
2022-10-13T08:29:22.332Z,17.50
2022-10-13T08:34:23.586Z,16.10
2022-10-13T08:36:53.381Z,15.80
2022-10-13T08:39:21.687Z,19.27
2022-10-13T08:41:48.680Z,16.30
2022-10-13T08:45:10.523Z,18.60
2022-10-13T08:47:27.612Z,19.23
2022-10-13T08:50:00.642Z,19.40
2022-10-13T08:52:41.996Z,17.17
2022-10-13T08:55:24.125Z,17.00
2022-10-13T08:57:51.293Z,19.00
2022-10-13T09:00:18.264Z,19.20
2022-10-13T09:02:50.099Z,19.00
2022-10-13T09:05:26.712Z,14.37
2022-10-13T09:07:54.769Z,18.03
2022-10-13T09:10:21.429Z,18.83
2022-10-13T09:12:48.082Z,19.17
2022-10-13T09:15:15.503Z,18.33
2022-10-13T09:17:42.250Z,18.53
2022-10-13T09:20:22.746Z,17.77
2022-10-13T09:23:07.754Z,16.33
2022-10-13T09:25:43.934Z,14.40
2022-10-13T09:28:32.206Z,14.07
2022-10-13T09:31:04.719Z,17.23
2022-10-13T09:33:35.826Z,17.40
2022-10-13T09:36:03.125Z,17.97
2022-10-13T09:38:30.371Z,13.93
2022-10-13T09:41:04.365Z,17.23
2022-10-13T09:43:34.590Z,18.90
2022-10-13T09:46:10.638Z,15.43
2022-10-13T09:48:39.228Z,18.23
2022-10-13T09:51:05.977Z,17.40
2022-10-13T09:53:40.800Z,18.33
2022-10-13T09:56:17.206Z,17.77
2022-10-13T09:59:22.808Z,18.03
2022-10-13T10:01:51.668Z,17.27
2022-10-13T10:04:23.822Z,18.10
2022-10-13T10:06:50.599Z,18.20
2022-10-13T10:09:36.681Z,14.60
2022-10-13T10:12:04.828Z,15.23
2022-10-13T10:14:34.573Z,15.30
2022-10-13T10:17:04.310Z,15.13
2022-10-13T10:19:52.694Z,15.70
2022-10-13T10:22:26.530Z,12.90
2022-10-13T10:25:16.261Z,15.30
2022-10-13T10:27:51.817Z,12.23
2022-10-13T10:30:20.371Z,14.37
2022-10-13T10:32:57.531Z,14.40
2022-10-13T10:35:45.112Z,13.60
2022-10-13T10:38:55.239Z,13.50
2022-10-13T10:41:31.038Z,14.10
2022-10-13T10:44:20.083Z,14.07
2022-10-13T10:46:49.884Z,13.43
2022-10-13T10:49:32.034Z,14.33
2022-10-13T10:52:01.529Z,13.00
2022-10-13T10:54:34.056Z,13.67
2022-10-13T10:57:21.154Z,11.03
2022-10-13T11:00:01.313Z,12.67
2022-10-13T11:02:49.673Z,12.50
2022-10-13T11:05:17.383Z,13.30
2022-10-13T11:07:44.174Z,11.93
2022-10-13T11:10:13.687Z,11.40
2022-10-13T11:12:52.480Z,11.70
2022-10-13T11:15:43.824Z,10.97
2022-10-13T11:18:48.286Z,9.80
2022-10-13T11:21:14.888Z,11.00
2022-10-13T11:23:49.776Z,11.30
2022-10-13T11:26:31.129Z,11.60
2022-10-13T11:28:58.856Z,11.57
2022-10-13T11:31:35.146Z,10.97
2022-10-13T11:34:03.497Z,10.83
2022-10-13T11:36:42.158Z,11.40
2022-10-13T11:39:35.727Z,10.90
2022-10-13T11:42:26.520Z,11.17
2022-10-13T11:45:02.104Z,11.60
2022-10-13T11:47:28.694Z,10.33
2022-10-13T11:50:36.723Z,11.70
2022-10-13T11:53:22.665Z,11.13
2022-10-13T11:55:55.867Z,10.83
2022-10-13T11:58:24.118Z,11.30
2022-10-13T12:01:07.088Z,13.63
2022-10-13T12:03:35.060Z,12.33
2022-10-13T12:06:20.789Z,13.00
2022-10-13T12:08:51.931Z,13.57
2022-10-13T12:11:27.589Z,13.33
2022-10-13T12:13:54.675Z,12.70
2022-10-13T12:16:21.927Z,13.03
2022-10-13T12:18:48.813Z,9.50
2022-10-13T12:21:22.308Z,10.03
2022-10-13T12:23:51.569Z,10.27
2022-10-13T12:26:25.279Z,8.50
2022-10-13T12:28:57.156Z,9.77
2022-10-13T12:31:26.726Z,9.33
2022-10-13T12:33:59.158Z,9.80
2022-10-13T12:36:30.839Z,9.20
2022-10-13T12:39:04.950Z,10.03
2022-10-13T12:41:37.017Z,8.70
2022-10-13T12:44:06.734Z,8.43
2022-10-13T12:46:53.730Z,8.80
2022-10-13T12:49:29.107Z,9.13
2022-10-13T12:52:24.106Z,8.50
2022-10-13T12:54:54.559Z,10.00
2022-10-13T12:57:38.364Z,9.90
2022-10-13T13:00:26.704Z,9.27
2022-10-13T13:03:01.939Z,9.77
2022-10-13T13:05:36.277Z,9.60
2022-10-13T13:08:27.095Z,10.30
2022-10-13T13:11:19.359Z,10.40
2022-10-13T13:13:46.099Z,13.87
2022-10-13T13:16:17.807Z,12.83
2022-10-13T13:18:45.196Z,13.57
2022-10-13T13:21:14.264Z,10.80
2022-10-13T13:23:41.785Z,12.13
2022-10-13T13:26:11.226Z,10.93
2022-10-13T13:28:38.057Z,10.87
2022-10-13T13:31:04.867Z,10.13
2022-10-13T13:33:31.479Z,10.83
2022-10-13T13:35:58.317Z,11.03
2022-10-13T13:38:25.096Z,9.77
2022-10-13T13:40:51.734Z,12.20
2022-10-13T13:43:18.417Z,10.57
2022-10-13T13:45:45.059Z,10.40
2022-10-13T13:48:12.974Z,9.90
2022-10-13T13:50:40.046Z,9.50
2022-10-13T13:53:07.256Z,9.80
2022-10-13T13:55:34.117Z,9.93
2022-10-13T13:58:00.781Z,10.60
2022-10-13T14:00:27.480Z,10.57
2022-10-13T14:02:54.693Z,9.27
2022-10-13T14:05:21.373Z,9.17
2022-10-13T14:07:48.076Z,10.27
2022-10-13T14:10:14.759Z,12.13
2022-10-13T14:12:41.930Z,9.30
2022-10-13T14:15:09.199Z,10.70
2022-10-13T14:17:35.830Z,9.80
2022-10-13T14:20:02.519Z,9.20
2022-10-13T14:22:29.195Z,9.57
2022-10-13T14:24:55.827Z,9.70
2022-10-13T14:27:22.878Z,9.73
2022-10-13T14:29:49.524Z,10.20
2022-10-13T14:32:16.225Z,8.57
2022-10-13T14:34:42.919Z,8.33
2022-10-13T14:37:09.565Z,7.50
2022-10-13T14:39:36.191Z,8.40
2022-10-13T14:42:02.865Z,9.97
2022-10-13T14:44:29.451Z,11.97
2022-10-13T14:46:56.084Z,9.97
2022-10-13T14:49:22.815Z,11.87
2022-10-13T14:51:49.509Z,11.40
2022-10-13T14:54:16.347Z,12.10
2022-10-13T14:56:44.574Z,12.90
2022-10-13T14:59:12.178Z,16.07
2022-10-13T15:01:41.383Z,11.40
2022-10-13T15:04:08.587Z,9.73
2022-10-13T15:06:39.158Z,11.50
2022-10-13T15:09:06.535Z,11.33
2022-10-13T15:11:33.264Z,12.43
2022-10-13T15:13:59.948Z,12.40
2022-10-13T15:16:29.554Z,12.73
2022-10-13T15:18:56.593Z,13.57
2022-10-13T15:21:24.060Z,12.87
2022-10-13T15:23:50.819Z,12.50
2022-10-13T15:26:19.514Z,11.87
2022-10-13T15:28:48.882Z,12.30
2022-10-13T15:31:16.951Z,12.47
2022-10-13T15:33:49.636Z,12.67
2022-10-13T15:36:16.324Z,12.77
2022-10-13T15:38:42.930Z,12.23
2022-10-13T15:41:10.898Z,13.33
2022-10-13T15:43:38.248Z,12.90
2022-10-13T15:46:07.871Z,12.97
2022-10-13T15:48:35.068Z,14.17
2022-10-13T15:51:12.016Z,12.30
2022-10-13T15:53:38.685Z,12.00
2022-10-13T15:56:05.521Z,12.97
2022-10-13T15:58:32.153Z,13.90
2022-10-13T16:00:58.860Z,13.60
2022-10-13T16:03:29.627Z,15.13
2022-10-13T16:05:56.706Z,13.00
2022-10-13T16:08:23.324Z,12.27
2022-10-13T16:10:49.958Z,12.30
2022-10-13T16:13:16.577Z,11.27
2022-10-13T16:15:43.271Z,13.43
2022-10-13T16:18:09.896Z,12.70
2022-10-13T16:20:38.668Z,12.50
2022-10-13T16:23:05.564Z,12.53
2022-10-13T16:25:32.224Z,12.53
2022-10-13T16:28:02.010Z,14.50
2022-10-13T16:30:30.448Z,12.57
2022-10-13T16:32:58.021Z,13.97
2022-10-13T16:35:24.781Z,14.03
2022-10-13T16:37:51.421Z,13.43
2022-10-13T16:40:18.047Z,13.83
2022-10-13T16:42:45.353Z,13.83
2022-10-13T16:45:13.064Z,12.30
2022-10-13T16:47:39.765Z,12.80
2022-10-13T16:50:09.511Z,12.20
2022-10-13T16:52:37.376Z,12.87
2022-10-13T16:55:05.467Z,12.50
2022-10-13T16:57:32.622Z,13.20
2022-10-13T16:59:59.287Z,11.90
2022-10-13T17:02:25.892Z,12.80
2022-10-13T17:04:52.620Z,11.70
2022-10-13T17:07:19.415Z,12.00
2022-10-13T17:09:47.167Z,11.97
2022-10-13T17:12:13.822Z,12.80
2022-10-13T17:14:40.460Z,12.93
2022-10-13T17:17:07.113Z,10.93
2022-10-13T17:19:33.926Z,12.80
2022-10-13T17:22:00.583Z,13.13
2022-10-13T17:24:27.273Z,12.07
2022-10-13T17:26:53.901Z,11.87
2022-10-13T17:29:20.518Z,12.43
2022-10-13T17:31:47.467Z,12.07
2022-10-13T17:34:14.110Z,11.73
2022-10-13T17:36:40.767Z,11.43
2022-10-13T17:39:09.342Z,12.47
2022-10-13T17:41:36.959Z,11.77
2022-10-13T17:44:03.940Z,11.53
2022-10-13T17:46:37.298Z,11.70
2022-10-13T17:49:05.187Z,12.00
2022-10-13T17:51:31.863Z,11.77
2022-10-13T17:53:59.531Z,11.53
2022-10-13T17:56:26.747Z,13.00
2022-10-13T17:58:53.759Z,10.90
2022-10-13T18:01:23.600Z,10.60
2022-10-13T18:03:56.285Z,10.80
2022-10-13T18:06:23.716Z,13.03
2022-10-13T18:08:51.068Z,11.50
2022-10-13T18:11:20.513Z,10.77
2022-10-13T18:13:47.429Z,12.50
2022-10-13T18:16:22.488Z,11.87
2022-10-13T18:18:51.195Z,11.13
2022-10-13T18:21:22.284Z,10.60
2022-10-13T18:23:49.006Z,11.53
2022-10-13T18:26:18.381Z,11.53
2022-10-13T18:28:46.350Z,12.50
2022-10-13T18:31:15.744Z,12.57
2022-10-13T18:33:42.679Z,12.20
2022-10-13T18:36:25.685Z,13.60
2022-10-13T18:39:00.256Z,13.53
2022-10-13T18:41:26.959Z,15.13
2022-10-13T18:43:54.174Z,15.40
2022-10-13T18:46:20.885Z,15.67
2022-10-13T18:48:47.500Z,15.93
2022-10-13T18:51:16.331Z,14.83
2022-10-13T18:53:44.673Z,14.47
2022-10-13T18:56:17.040Z,15.33
2022-10-13T18:58:43.692Z,14.70
2022-10-13T19:01:13.138Z,15.23
2022-10-13T19:03:41.237Z,14.60
2022-10-13T19:06:09.863Z,14.67
2022-10-13T19:08:36.627Z,16.03
2022-10-13T19:11:18.034Z,15.47
2022-10-13T19:13:45.048Z,14.93
2022-10-13T19:16:12.930Z,15.80
2022-10-13T19:18:39.642Z,13.63
2022-10-13T19:21:06.951Z,15.20
2022-10-13T19:23:33.700Z,14.47
2022-10-13T19:26:05.114Z,15.40
2022-10-13T19:28:31.797Z,14.27
2022-10-13T19:31:08.189Z,15.30
2022-10-13T19:33:34.835Z,15.87
2022-10-13T19:36:01.614Z,16.70
2022-10-13T19:38:28.271Z,16.03
2022-10-13T19:40:54.929Z,16.57
2022-10-13T19:43:22.240Z,14.00
2022-10-13T19:45:59.611Z,14.20
2022-10-13T19:48:27.014Z,12.80
2022-10-13T19:50:53.944Z,12.70
2022-10-13T19:53:20.638Z,13.73
2022-10-13T19:55:48.565Z,13.77
2022-10-13T19:58:16.314Z,13.50
2022-10-13T20:00:44.259Z,13.63
2022-10-13T20:03:12.292Z,14.70
2022-10-13T20:05:39.244Z,12.90
2022-10-13T20:08:06.243Z,13.77
2022-10-13T20:10:33.804Z,13.10
2022-10-13T20:13:00.899Z,13.50
2022-10-13T20:15:27.517Z,12.47
2022-10-13T20:17:54.149Z,13.03
2022-10-13T20:20:22.542Z,13.30
2022-10-13T20:22:49.348Z,13.20
2022-10-13T20:25:19.572Z,12.77
2022-10-13T20:27:47.194Z,13.70
2022-10-13T20:30:14.342Z,13.47
2022-10-13T20:32:41.679Z,14.53
2022-10-13T20:35:08.921Z,13.70
2022-10-13T20:37:35.761Z,13.50
2022-10-13T20:40:02.424Z,13.30
2022-10-13T20:42:29.078Z,13.83
2022-10-13T20:44:55.855Z,12.57
2022-10-13T20:47:23.104Z,13.30
2022-10-13T20:49:49.925Z,12.60
2022-10-13T20:52:16.536Z,13.83
2022-10-13T20:54:43.174Z,14.97
2022-10-13T20:57:09.846Z,15.50
2022-10-13T20:59:36.540Z,14.67
2022-10-13T21:02:03.198Z,16.40
2022-10-13T21:04:30.002Z,15.80
2022-10-13T21:06:56.676Z,13.63
2022-10-13T21:09:23.401Z,14.60
2022-10-13T21:11:50.235Z,14.47
2022-10-13T21:14:16.928Z,13.60
2022-10-13T21:16:43.599Z,13.30
2022-10-13T21:19:10.347Z,13.83
2022-10-13T21:21:37.684Z,15.43
2022-10-13T21:24:07.320Z,14.60
2022-10-13T21:26:35.027Z,14.60
2022-10-13T21:29:02.081Z,13.27
2022-10-13T21:31:29.335Z,14.13
2022-10-13T21:33:56.780Z,13.70
2022-10-13T21:36:26.366Z,15.83
2022-10-13T21:39:11.567Z,14.57
2022-10-13T21:41:38.334Z,14.37
2022-10-13T21:44:04.979Z,14.77
2022-10-13T21:46:33.610Z,14.60
2022-10-13T21:49:02.687Z,13.87
2022-10-13T21:51:31.889Z,13.40
2022-10-13T21:54:01.366Z,14.93
2022-10-13T21:56:28.731Z,14.70
2022-10-13T21:58:56.357Z,14.27
2022-10-13T22:01:24.099Z,14.30
2022-10-13T22:03:54.926Z,15.20
2022-10-13T22:06:22.005Z,14.37
2022-10-13T22:08:51.284Z,16.30
2022-10-13T22:11:19.264Z,14.90
2022-10-13T22:13:45.948Z,14.77
2022-10-13T22:16:18.323Z,14.63
2022-10-13T22:18:45.721Z,16.57
2022-10-13T22:21:16.616Z,16.53
2022-10-13T22:23:43.934Z,16.20
2022-10-13T22:26:10.832Z,15.90
2022-10-13T22:28:38.267Z,17.70
2022-10-13T22:31:10.149Z,17.40
2022-10-13T22:33:39.397Z,14.30
2022-10-13T22:36:17.457Z,14.87
2022-10-13T22:38:48.777Z,15.20
2022-10-13T22:41:16.889Z,11.30
2022-10-13T22:43:44.743Z,12.00
2022-10-13T22:46:16.427Z,11.90
2022-10-13T22:48:43.618Z,10.70
2022-10-13T22:51:12.210Z,10.00
2022-10-13T22:53:39.327Z,10.43
2022-10-13T22:56:12.125Z,10.70
2022-10-13T22:58:39.352Z,10.90
2022-10-13T23:01:15.969Z,11.30
2022-10-13T23:03:43.195Z,11.23
2022-10-13T23:06:14.195Z,11.67
2022-10-13T23:08:41.441Z,10.77
2022-10-13T23:11:08.110Z,10.63
2022-10-13T23:13:34.855Z,12.50
2022-10-13T23:16:13.758Z,11.07
2022-10-13T23:18:40.476Z,10.73
2022-10-13T23:21:08.707Z,11.17
2022-10-13T23:23:35.590Z,11.13
2022-10-13T23:26:06.964Z,10.60
2022-10-13T23:28:34.677Z,11.83
2022-10-13T23:31:06.783Z,11.00
2022-10-13T23:33:34.051Z,11.30
2022-10-13T23:36:02.447Z,10.67
2022-10-13T23:38:30.598Z,11.83
2022-10-13T23:41:07.427Z,10.67
2022-10-13T23:43:34.098Z,10.90
2022-10-13T23:46:01.179Z,10.30
2022-10-13T23:48:28.311Z,11.00
2022-10-13T23:50:55.019Z,10.20
2022-10-13T23:53:22.489Z,10.10
2022-10-13T23:55:49.141Z,10.70
2022-10-13T23:58:15.929Z,10.67
